Time;durP1;ratioP1;P1;durP2;ratioP2;P2;SDS_P1;SDS_P2;PMS_P1;PMS_P2;Temp;Humidity;BMP_temperature;BMP_pressure;BME280_temperature;BME280_humidity;BME280_pressure;Samples;Min_cycle;Max_cycle;Signal;HPM_P1;HPM_P2
2023/10/05 00:01:12;;;;;;;10.15;5.80;;;11.10;99.90;;;;;;5026402;28;20497;-56
2023/10/05 00:03:43;;;;;;;9.60;5.40;;;11.00;99.90;;;;;;5024152;28;20025;-53
2023/10/05 00:06:16;;;;;;;8.95;5.22;;;11.00;99.90;;;;;;5027828;28;20485;-55
2023/10/05 00:08:44;;;;;;;12.27;5.47;;;11.00;99.90;;;;;;5029187;28;20032;-56
2023/10/05 00:11:22;;;;;;;8.05;5.15;;;11.00;99.90;;;;;;5024195;28;20025;-54
2023/10/05 00:13:48;;;;;;;10.65;4.97;;;10.90;99.90;;;;;;5025200;28;20047;-55
2023/10/05 00:16:20;;;;;;;10.40;5.07;;;10.90;99.90;;;;;;5019162;28;20171;-53
2023/10/05 00:18:47;;;;;;;9.40;4.90;;;10.90;99.90;;;;;;5020945;28;20017;-56
2023/10/05 00:21:12;;;;;;;11.50;5.35;;;10.90;99.90;;;;;;5026216;28;20044;-55
2023/10/05 00:23:40;;;;;;;10.30;4.80;;;10.80;99.90;;;;;;5023805;28;20478;-55
2023/10/05 00:26:07;;;;;;;11.20;5.32;;;10.80;99.90;;;;;;5031454;28;20076;-54
2023/10/05 00:28:34;;;;;;;10.98;5.05;;;10.80;99.90;;;;;;5033235;28;20408;-53
2023/10/05 00:31:01;;;;;;;11.15;4.97;;;10.90;99.90;;;;;;5029154;28;20021;-55
2023/10/05 00:33:26;;;;;;;13.50;5.22;;;10.90;99.90;;;;;;5022938;28;20033;-54
2023/10/05 00:35:52;;;;;;;11.30;5.18;;;10.90;99.90;;;;;;5024355;28;20025;-56
2023/10/05 00:38:18;;;;;;;11.45;5.22;;;10.90;99.90;;;;;;5029802;28;20031;-55
2023/10/05 00:40:58;;;;;;;11.40;5.13;;;10.90;99.90;;;;;;5019740;28;20484;-53
2023/10/05 00:43:25;;;;;;;10.23;5.10;;;10.90;99.90;;;;;;5024832;28;20100;-54
2023/10/05 00:45:53;;;;;;;9.02;4.65;;;10.80;99.90;;;;;;5028595;28;20033;-54
2023/10/05 00:48:54;;;;;;;13.38;5.72;;;10.80;99.90;;;;;;5034206;28;20048;-55
2023/10/05 00:51:23;;;;;;;9.65;4.97;;;10.90;99.90;;;;;;5024335;28;20513;-55
2023/10/05 00:53:50;;;;;;;9.45;4.70;;;10.90;99.90;;;;;;5031752;28;20472;-53
2023/10/05 00:56:16;;;;;;;10.55;5.15;;;10.90;99.90;;;;;;5033021;28;20029;-55
2023/10/05 00:58:44;;;;;;;11.00;4.88;;;10.90;99.90;;;;;;5030032;28;20440;-55
2023/10/05 01:01:22;;;;;;;9.00;5.03;;;10.90;99.90;;;;;;5032354;28;20112;-54
2023/10/05 01:06:37;;;;;;;15.55;5.38;;;10.80;99.90;;;;;;5027596;28;20043;-55
2023/10/05 01:09:04;;;;;;;11.20;4.80;;;10.80;99.90;;;;;;5024296;28;20037;-55
2023/10/05 01:11:41;;;;;;;13.55;5.32;;;10.90;99.90;;;;;;5020203;28;20056;-55
2023/10/05 01:14:06;;;;;;;7.65;4.60;;;10.90;99.90;;;;;;5019409;28;20177;-55
2023/10/05 01:16:32;;;;;;;12.98;4.75;;;10.90;99.90;;;;;;5027780;28;20324;-55
2023/10/05 01:19:00;;;;;;;13.27;5.53;;;10.90;99.90;;;;;;5022785;28;20057;-56
2023/10/05 01:21:26;;;;;;;9.93;5.30;;;11.00;99.90;;;;;;5030251;28;20025;-56
2023/10/05 01:23:51;;;;;;;9.77;4.80;;;11.00;99.90;;;;;;5032802;28;20075;-53
2023/10/05 01:26:17;;;;;;;9.43;4.80;;;11.00;99.90;;;;;;5029495;28;20157;-56
2023/10/05 01:28:42;;;;;;;10.13;5.05;;;11.00;99.90;;;;;;5032910;28;20024;-53
2023/10/05 01:31:12;;;;;;;12.00;5.03;;;11.00;99.90;;;;;;5031213;28;20033;-55
2023/10/05 01:33:38;;;;;;;8.43;4.15;;;11.00;99.90;;;;;;5029087;28;20087;-56
2023/10/05 01:36:04;;;;;;;12.45;5.28;;;11.00;99.90;;;;;;5032077;28;20447;-54
2023/10/05 01:38:37;;;;;;;10.18;5.00;;;11.00;99.90;;;;;;5012856;28;20117;-55
2023/10/05 01:41:04;;;;;;;11.20;4.55;;;11.00;99.90;;;;;;5017465;28;20489;-54
2023/10/05 01:43:29;;;;;;;11.13;4.85;;;11.00;99.90;;;;;;5024623;28;20086;-56
2023/10/05 01:45:56;;;;;;;8.85;3.88;;;11.10;99.90;;;;;;5026458;28;20041;-55
2023/10/05 01:48:26;;;;;;;9.30;4.55;;;11.10;99.90;;;;;;5024032;28;20072;-56
2023/10/05 01:50:51;;;;;;;12.18;4.93;;;11.00;99.90;;;;;;5024106;28;20041;-56
2023/10/05 01:53:18;;;;;;;9.93;4.38;;;11.00;99.90;;;;;;5026530;28;20534;-55
2023/10/05 01:55:47;;;;;;;6.93;4.25;;;11.10;99.90;;;;;;5022478;28;20489;-56
2023/10/05 01:58:22;;;;;;;9.18;4.13;;;11.10;99.90;;;;;;5024820;28;20470;-55
2023/10/05 02:00:48;;;;;;;9.55;4.00;;;11.10;99.90;;;;;;5031338;28;20029;-54
2023/10/05 02:03:14;;;;;;;10.43;4.70;;;11.10;99.90;;;;;;5031020;28;20026;-54
2023/10/05 02:05:39;;;;;;;7.78;3.70;;;11.10;99.90;;;;;;5024989;28;20125;-56
2023/10/05 02:08:05;;;;;;;9.43;4.20;;;11.00;99.90;;;;;;5022407;28;20033;-54
2023/10/05 02:10:39;;;;;;;7.82;3.97;;;11.10;99.90;;;;;;5025988;28;20445;-54
2023/10/05 02:13:12;;;;;;;9.07;3.72;;;11.10;99.90;;;;;;5025311;28;20036;-53
2023/10/05 02:15:39;;;;;;;9.07;4.00;;;11.10;99.90;;;;;;5025879;28;20075;-55
2023/10/05 02:18:18;;;;;;;12.98;4.72;;;11.00;99.90;;;;;;5029188;28;20067;-56
2023/10/05 02:20:46;;;;;;;8.45;4.35;;;11.00;99.90;;;;;;5027728;28;20443;-56
2023/10/05 02:23:25;;;;;;;9.15;4.03;;;11.00;99.90;;;;;;5026753;28;20087;-57
2023/10/05 02:26:23;;;;;;;10.60;4.60;;;11.00;99.90;;;;;;5023052;28;20041;-55
2023/10/05 02:28:49;;;;;;;11.23;4.30;;;11.00;99.90;;;;;;5022476;28;20021;-56
2023/10/05 02:31:15;;;;;;;7.80;3.65;;;11.00;99.90;;;;;;5028650;28;20025;-53
2023/10/05 02:33:43;;;;;;;8.52;4.40;;;11.00;99.90;;;;;;5026013;28;20021;-56
2023/10/05 02:36:11;;;;;;;11.25;4.50;;;11.00;99.90;;;;;;5025026;28;20127;-55
2023/10/05 02:38:38;;;;;;;13.18;4.22;;;11.00;99.90;;;;;;5029681;28;20025;-55
2023/10/05 02:41:05;;;;;;;9.65;4.38;;;11.00;99.90;;;;;;5024366;28;20048;-53
2023/10/05 02:43:38;;;;;;;7.72;4.15;;;11.10;99.90;;;;;;5034255;28;20017;-55
2023/10/05 02:46:09;;;;;;;15.23;5.18;;;11.10;99.90;;;;;;5031977;28;20441;-55
2023/10/05 02:48:35;;;;;;;10.25;3.92;;;11.10;99.90;;;;;;5034513;28;20040;-55
2023/10/05 02:51:05;;;;;;;7.72;4.30;;;11.10;99.90;;;;;;5031785;28;20031;-56
2023/10/05 02:53:37;;;;;;;8.50;4.07;;;11.10;99.90;;;;;;5026109;28;20056;-56
2023/10/05 02:56:33;;;;;;;8.38;3.60;;;11.10;99.90;;;;;;5031586;28;20440;-54
2023/10/05 02:59:19;;;;;;;12.20;4.32;;;11.10;99.90;;;;;;5022442;28;20024;-55
2023/10/05 03:01:45;;;;;;;;;;;11.10;99.90;;;;;;5025860;28;20040;-55
2023/10/05 03:04:16;;;;;;;9.43;4.13;;;11.10;99.90;;;;;;5033187;28;19913;-52
2023/10/05 03:06:47;;;;;;;8.27;3.72;;;11.10;99.90;;;;;;5034999;28;20098;-55
2023/10/05 03:09:13;;;;;;;10.68;4.07;;;11.10;99.90;;;;;;5031983;28;20045;-55
2023/10/05 03:11:46;;;;;;;9.80;4.07;;;11.10;99.90;;;;;;5027984;28;20029;-55
2023/10/05 03:14:12;;;;;;;10.75;4.95;;;11.20;99.90;;;;;;5031331;28;20070;-55
2023/10/05 03:16:47;;;;;;;8.82;3.80;;;11.20;99.90;;;;;;5037641;28;20032;-52
2023/10/05 03:19:18;;;;;;;8.88;3.40;;;11.20;99.90;;;;;;5030441;28;20400;-55
2023/10/05 03:21:45;;;;;;;13.52;5.03;;;11.20;99.90;;;;;;5028032;28;20037;-56
2023/10/05 03:24:13;;;;;;;7.78;3.88;;;11.20;99.90;;;;;;5026131;28;20553;-53
2023/10/05 03:26:42;;;;;;;8.95;4.10;;;11.30;99.90;;;;;;5028176;28;20076;-54
2023/10/05 03:29:11;;;;;;;13.02;4.25;;;11.20;99.90;;;;;;5024267;28;20029;-56
2023/10/05 03:31:43;;;;;;;8.32;3.88;;;11.20;99.90;;;;;;5026978;28;20021;-55
2023/10/05 03:34:09;;;;;;;11.85;4.18;;;11.20;99.90;;;;;;5023527;28;20068;-55
2023/10/05 03:36:36;;;;;;;12.20;4.07;;;11.30;99.90;;;;;;5022532;28;20029;-56
2023/10/05 03:39:07;;;;;;;8.55;4.28;;;11.30;99.90;;;;;;5025597;28;20025;-55
2023/10/05 03:41:32;;;;;;;6.97;3.55;;;11.30;99.90;;;;;;5022892;28;20032;-55
2023/10/05 03:44:02;;;;;;;12.82;4.55;;;11.30;99.90;;;;;;5028567;28;20033;-56
2023/10/05 03:46:28;;;;;;;9.02;4.50;;;11.30;99.90;;;;;;5027253;28;20033;-55
2023/10/05 03:48:59;;;;;;;7.78;3.92;;;11.40;99.90;;;;;;5025076;28;20084;-56
2023/10/05 03:51:26;;;;;;;9.63;3.55;;;11.40;99.90;;;;;;5028060;28;20044;-58
2023/10/05 03:53:51;;;;;;;8.05;3.97;;;11.40;99.90;;;;;;5015577;28;20041;-59
2023/10/05 03:56:19;;;;;;;9.07;4.30;;;11.40;99.90;;;;;;5027995;28;20021;-59
2023/10/05 03:58:48;;;;;;;8.63;4.40;;;11.40;99.90;;;;;;5024615;28;20079;-58
2023/10/05 04:01:15;;;;;;;11.60;3.88;;;11.40;99.90;;;;;;5026522;28;20032;-58
2023/10/05 04:03:42;;;;;;;11.20;4.57;;;11.40;99.90;;;;;;5027400;28;20437;-58
2023/10/05 04:06:17;;;;;;;12.02;5.00;;;11.40;99.90;;;;;;5025420;28;20030;-59
2023/10/05 04:08:50;;;;;;;11.50;5.03;;;11.40;99.90;;;;;;5026807;28;20052;-58
2023/10/05 04:11:17;;;;;;;13.05;5.45;;;11.40;99.90;;;;;;5028176;28;20803;-55
2023/10/05 04:13:43;;;;;;;10.05;5.20;;;11.40;99.90;;;;;;5029102;28;20029;-50
2023/10/05 04:16:11;;;;;;;13.88;4.80;;;11.40;99.90;;;;;;5022335;28;20106;-53
2023/10/05 04:18:38;;;;;;;13.57;5.50;;;11.40;99.90;;;;;;5024077;28;20021;-52
2023/10/05 04:21:04;;;;;;;10.50;4.00;;;11.40;99.90;;;;;;5031509;28;20443;-53
2023/10/05 04:23:30;;;;;;;9.70;3.95;;;11.40;99.90;;;;;;5025954;28;20489;-53
2023/10/05 04:25:56;;;;;;;11.20;4.18;;;11.40;99.90;;;;;;5032853;28;20055;-49
2023/10/05 04:28:32;;;;;;;10.20;4.75;;;11.40;99.90;;;;;;5027148;28;20028;-52
2023/10/05 04:30:57;;;;;;;12.75;4.68;;;11.40;99.90;;;;;;5030494;28;20032;-51
2023/10/05 04:33:26;;;;;;;9.63;4.32;;;11.40;99.90;;;;;;5021638;28;20025;-52
2023/10/05 04:35:52;;;;;;;12.02;4.63;;;11.40;99.90;;;;;;5018625;28;20033;-53
2023/10/05 04:38:25;;;;;;;14.68;5.00;;;11.40;99.90;;;;;;5031715;28;20080;-50
2023/10/05 04:40:54;;;;;;;12.93;4.35;;;11.40;99.90;;;;;;5015661;28;20071;-53
2023/10/05 04:43:21;;;;;;;7.95;4.15;;;11.40;99.90;;;;;;5022451;28;20025;-49
2023/10/05 04:45:47;;;;;;;17.52;5.55;;;11.40;99.90;;;;;;5032139;28;20060;-53
2023/10/05 04:48:13;;;;;;;10.88;4.07;;;11.40;99.90;;;;;;5034014;28;20061;-52
2023/10/05 04:50:42;;;;;;;10.90;4.30;;;11.40;99.90;;;;;;5025366;28;20506;-50
2023/10/05 04:53:14;;;;;;;9.55;4.10;;;11.50;99.90;;;;;;5018228;28;20116;-53
2023/10/05 04:55:43;;;;;;;13.43;4.35;;;11.50;99.90;;;;;;5021644;28;20071;-52
2023/10/05 04:58:22;;;;;;;12.95;4.93;;;11.50;99.90;;;;;;5024795;28;20493;-51
2023/10/05 05:03:32;;;;;;;10.30;4.57;;;11.60;99.90;;;;;;5024083;28;20037;-53
2023/10/05 05:08:34;;;;;;;11.65;4.55;;;11.60;99.90;;;;;;5022344;28;20120;-52
2023/10/05 05:11:00;;;;;;;12.63;4.18;;;11.60;99.90;;;;;;5023154;28;20028;-53
2023/10/05 05:13:27;;;;;;;8.13;3.97;;;11.60;99.90;;;;;;5027357;28;20025;-52
2023/10/05 05:15:53;;;;;;;14.40;4.72;;;11.60;99.90;;;;;;5024414;28;20017;-53
2023/10/05 05:18:19;;;;;;;11.38;4.47;;;11.60;99.90;;;;;;5022134;28;20032;-50
2023/10/05 05:20:45;;;;;;;13.20;5.07;;;11.70;99.90;;;;;;5029947;28;20029;-53
2023/10/05 05:23:13;;;;;;;12.50;4.45;;;11.70;99.90;;;;;;5024174;28;20112;-53
2023/10/05 05:25:39;;;;;;;14.52;4.32;;;11.80;99.90;;;;;;5024236;28;20091;-51
2023/10/05 05:28:05;;;;;;;8.18;3.83;;;11.80;99.90;;;;;;5024170;28;20106;-51
2023/10/05 05:30:32;;;;;;;9.85;4.35;;;11.80;99.90;;;;;;5025724;28;20094;-49
2023/10/05 05:32:58;;;;;;;10.25;4.35;;;11.80;99.90;;;;;;5019192;28;20022;-53
2023/10/05 05:35:24;;;;;;;8.13;3.33;;;11.80;99.90;;;;;;5025117;28;20480;-51
2023/10/05 05:37:50;;;;;;;12.43;4.35;;;11.90;99.90;;;;;;5025354;28;20121;-48
2023/10/05 05:40:15;;;;;;;13.90;4.88;;;11.90;99.90;;;;;;5024116;28;20030;-52
2023/10/05 05:42:45;;;;;;;9.63;4.47;;;11.90;99.90;;;;;;5024727;28;20483;-52
2023/10/05 05:45:17;;;;;;;13.90;4.78;;;11.90;99.90;;;;;;5027440;28;20040;-49
2023/10/05 05:47:45;;;;;;;6.97;3.92;;;11.90;99.90;;;;;;5025550;28;20261;-51
2023/10/05 05:50:18;;;;;;;12.10;3.90;;;11.90;99.90;;;;;;5032507;28;20525;-51
2023/10/05 05:52:47;;;;;;;12.95;5.00;;;12.00;99.90;;;;;;5005898;28;20035;-50
2023/10/05 05:55:20;;;;;;;8.90;3.88;;;12.00;99.90;;;;;;5030034;28;20056;-51
2023/10/05 05:57:47;;;;;;;8.40;4.03;;;12.00;99.90;;;;;;5030113;28;20091;-53
2023/10/05 06:00:13;;;;;;;8.68;4.10;;;12.00;99.90;;;;;;5025727;28;20040;-53
2023/10/05 06:02:41;;;;;;;12.60;4.47;;;12.00;99.90;;;;;;5028807;28;20091;-52
2023/10/05 06:05:13;;;;;;;9.35;4.18;;;12.00;99.90;;;;;;5028908;28;20063;-51
2023/10/05 06:07:40;;;;;;;13.40;3.90;;;12.00;99.90;;;;;;5025028;28;20033;-52
2023/10/05 06:10:14;;;;;;;7.70;3.42;;;12.10;99.90;;;;;;5027887;28;20051;-50
2023/10/05 06:12:44;;;;;;;10.25;4.28;;;12.10;99.90;;;;;;5020443;28;20103;-52
2023/10/05 06:15:13;;;;;;;9.43;4.18;;;12.10;99.90;;;;;;5025114;28;20033;-49
2023/10/05 06:17:39;;;;;;;9.98;4.00;;;12.20;99.90;;;;;;5027617;28;20028;-53
2023/10/05 06:20:07;;;;;;;10.38;4.72;;;12.20;99.90;;;;;;5029716;28;20113;-51
2023/10/05 06:22:33;;;;;;;12.07;4.43;;;12.30;99.90;;;;;;5027643;28;20074;-48
2023/10/05 06:24:59;;;;;;;8.00;3.80;;;12.30;99.90;;;;;;5025130;28;20536;-51
2023/10/05 06:27:24;;;;;;;6.35;3.63;;;12.40;99.90;;;;;;5032741;28;20029;-49
2023/10/05 06:29:50;;;;;;;8.27;3.97;;;12.50;99.90;;;;;;5028241;28;20033;-52
2023/10/05 06:32:15;;;;;;;8.98;4.15;;;12.50;99.90;;;;;;5024002;28;20021;-53
2023/10/05 06:34:41;;;;;;;7.18;3.70;;;12.60;99.90;;;;;;5024468;28;20041;-49
2023/10/05 06:37:06;;;;;;;9.55;4.10;;;12.70;99.90;;;;;;5029703;28;20629;-53
2023/10/05 06:39:32;;;;;;;8.05;3.38;;;12.80;99.90;;;;;;5027112;28;20029;-47
2023/10/05 06:41:58;;;;;;;9.68;3.90;;;12.90;99.90;;;;;;5025315;28;20025;-48
2023/10/05 06:44:24;;;;;;;9.05;3.85;;;12.90;99.90;;;;;;5025616;28;20381;-52
2023/10/05 06:46:50;;;;;;;10.98;4.47;;;13.00;99.90;;;;;;5028680;28;20040;-51
2023/10/05 06:49:16;;;;;;;11.73;4.47;;;13.10;99.90;;;;;;5024774;28;20021;-46
2023/10/05 06:51:45;;;;;;;10.52;4.65;;;13.20;99.90;;;;;;5020569;28;20034;-48
2023/10/05 06:54:11;;;;;;;10.35;3.90;;;13.30;99.90;;;;;;5027491;28;20021;-50
2023/10/05 06:56:37;;;;;;;9.23;3.92;;;13.30;99.90;;;;;;5033239;28;20024;-50
2023/10/05 06:59:04;;;;;;;10.32;4.25;;;13.40;99.90;;;;;;5026266;28;20025;-48
2023/10/05 07:01:34;;;;;;;15.90;5.05;;;13.40;99.90;;;;;;5025297;28;20029;-52
2023/10/05 07:04:00;;;;;;;11.77;4.38;;;13.50;99.90;;;;;;5027835;28;20021;-52
2023/10/05 07:06:29;;;;;;;9.77;4.65;;;13.60;99.90;;;;;;5030170;28;20037;-51
2023/10/05 07:08:55;;;;;;;10.45;4.72;;;13.70;99.90;;;;;;5007877;28;20396;-53
2023/10/05 07:11:22;;;;;;;12.95;4.03;;;13.70;99.90;;;;;;5027429;28;20028;-52
2023/10/05 07:13:48;;;;;;;12.60;4.53;;;13.80;99.90;;;;;;5023794;28;20662;-51
2023/10/05 07:16:14;;;;;;;12.05;4.47;;;13.90;99.90;;;;;;5014942;28;20040;-52
2023/10/05 07:18:39;;;;;;;12.10;4.07;;;14.00;99.10;;;;;;5024163;28;20597;-50
2023/10/05 07:21:08;;;;;;;9.30;3.83;;;14.20;99.60;;;;;;5032506;28;20032;-52
2023/10/05 07:23:37;;;;;;;9.95;4.32;;;14.30;98.80;;;;;;5026389;28;20355;-50
2023/10/05 07:26:06;;;;;;;10.18;3.88;;;14.30;97.90;;;;;;5020508;28;20046;-52
2023/10/05 07:28:37;;;;;;;8.88;3.60;;;14.30;98.20;;;;;;5022449;28;20028;-52
2023/10/05 07:31:03;;;;;;;8.48;3.33;;;14.40;97.70;;;;;;5025114;28;20067;-52
2023/10/05 07:33:29;;;;;;;7.68;3.70;;;14.40;97.60;;;;;;5030411;28;20044;-51
2023/10/05 07:35:55;;;;;;;8.02;3.95;;;14.50;97.50;;;;;;5028020;28;20561;-53
2023/10/05 07:38:22;;;;;;;8.18;3.83;;;14.60;97.70;;;;;;5027901;28;20166;-51
2023/10/05 07:40:47;;;;;;;7.72;3.60;;;14.70;97.50;;;;;;5023360;28;20078;-52
2023/10/05 07:43:13;;;;;;;7.15;4.00;;;14.70;96.20;;;;;;5027163;28;20458;-53
2023/10/05 07:45:38;;;;;;;9.57;4.28;;;14.80;95.50;;;;;;5024903;28;20108;-54
2023/10/05 07:48:06;;;;;;;13.27;4.65;;;14.80;96.10;;;;;;5017979;28;20029;-54
2023/10/05 07:50:32;;;;;;;10.13;4.25;;;14.90;94.80;;;;;;5027410;28;20036;-54
2023/10/05 07:52:58;;;;;;;10.57;3.97;;;14.90;96.00;;;;;;5031773;28;20048;-54
2023/10/05 07:55:24;;;;;;;7.55;3.78;;;15.10;95.60;;;;;;5019258;28;20033;-51
2023/10/05 07:57:50;;;;;;;8.05;3.97;;;15.40;94.70;;;;;;5026930;28;20036;-52
2023/10/05 08:00:16;;;;;;;8.40;3.88;;;15.70;94.00;;;;;;5027635;28;20033;-51
2023/10/05 08:02:41;;;;;;;9.18;3.88;;;15.90;93.80;;;;;;5022358;28;20029;-51
2023/10/05 08:05:09;;;;;;;9.95;3.78;;;16.20;92.80;;;;;;5022511;28;20104;-50
2023/10/05 08:07:35;;;;;;;8.93;4.03;;;16.50;91.60;;;;;;5023300;28;20033;-54
2023/10/05 08:10:00;;;;;;;9.30;3.30;;;16.80;90.40;;;;;;5025409;28;20088;-53
2023/10/05 08:12:29;;;;;;;10.00;4.40;;;17.20;91.50;;;;;;5033310;28;20021;-51
2023/10/05 08:14:55;;;;;;;7.85;3.53;;;17.30;87.80;;;;;;5030087;28;20684;-53
2023/10/05 08:17:21;;;;;;;8.60;3.88;;;17.20;89.50;;;;;;5024643;28;20105;-51
2023/10/05 08:19:46;;;;;;;7.65;3.58;;;17.10;87.30;;;;;;5024591;28;20088;-53
2023/10/05 08:22:16;;;;;;;10.23;4.35;;;17.00;88.50;;;;;;5026495;28;20122;-53
2023/10/05 08:24:41;;;;;;;9.48;4.20;;;16.90;87.40;;;;;;5022122;28;20022;-51
2023/10/05 08:27:07;;;;;;;9.85;4.20;;;16.80;86.60;;;;;;5025819;28;20095;-52
2023/10/05 08:29:32;;;;;;;7.95;3.85;;;16.50;86.50;;;;;;5027620;28;20140;-50
2023/10/05 08:31:58;;;;;;;8.80;3.53;;;16.30;87.60;;;;;;5023443;28;20037;-51
2023/10/05 08:34:25;;;;;;;8.10;3.35;;;16.40;88.20;;;;;;5023081;28;20044;-50
2023/10/05 08:36:53;;;;;;;6.85;3.50;;;16.60;88.10;;;;;;5026055;28;20013;-52
2023/10/05 08:39:25;;;;;;;8.25;3.55;;;16.80;88.60;;;;;;5024782;28;20032;-50
2023/10/05 08:41:54;;;;;;;5.72;2.65;;;16.80;88.00;;;;;;5027315;28;20039;-53
2023/10/05 08:44:26;;;;;;;10.55;3.83;;;16.80;87.40;;;;;;5025294;28;20051;-49
2023/10/05 08:46:56;;;;;;;10.45;3.22;;;16.70;87.20;;;;;;5019461;28;20060;-52
2023/10/05 08:49:23;;;;;;;12.15;3.45;;;16.60;86.20;;;;;;5028088;28;20025;-52
2023/10/05 08:51:50;;;;;;;10.35;3.42;;;16.50;87.90;;;;;;5027121;28;20032;-51
2023/10/05 08:54:16;;;;;;;5.18;2.58;;;16.40;88.60;;;;;;5023837;28;20018;-52
2023/10/05 08:56:47;;;;;;;9.63;3.42;;;16.40;88.60;;;;;;5022033;28;20489;-49
2023/10/05 08:59:13;;;;;;;10.20;3.63;;;16.50;89.00;;;;;;5026849;28;20096;-49
2023/10/05 09:01:42;;;;;;;7.18;3.08;;;16.40;87.20;;;;;;5024995;28;20056;-49
2023/10/05 09:06:52;;;;;;;9.73;3.15;;;16.60;87.50;;;;;;5026110;28;20032;-53
2023/10/05 09:09:35;;;;;;;6.63;3.05;;;17.00;86.40;;;;;;5019849;28;20029;-49
2023/10/05 09:12:35;;;;;;;6.57;3.35;;;17.40;84.30;;;;;;5026873;28;20135;-51
2023/10/05 09:17:56;;;;;;;10.23;3.53;;;18.20;82.30;;;;;;5024374;28;20064;-52
2023/10/05 09:20:24;;;;;;;6.50;2.80;;;18.40;80.90;;;;;;5027489;28;20025;-52
2023/10/05 09:22:51;;;;;;;9.15;3.38;;;18.50;79.20;;;;;;5027474;28;20037;-52
2023/10/05 09:25:26;;;;;;;8.98;3.20;;;18.40;74.40;;;;;;5031936;28;20056;-50
2023/10/05 09:27:52;;;;;;;9.35;3.33;;;18.40;78.10;;;;;;5023070;28;20014;-52
2023/10/05 09:30:21;;;;;;;6.28;3.40;;;18.40;76.00;;;;;;5032001;28;20051;-50
2023/10/05 09:32:48;;;;;;;6.50;2.80;;;18.50;77.20;;;;;;5024288;28;20037;-51
2023/10/05 09:35:31;;;;;;;8.23;3.25;;;18.50;76.90;;;;;;5029919;28;20029;-52
2023/10/05 09:38:01;;;;;;;5.72;2.30;;;18.50;76.20;;;;;;5027616;28;20546;-52
2023/10/05 09:40:28;;;;;;;6.43;2.88;;;18.60;77.60;;;;;;5027137;28;20104;-51
2023/10/05 09:43:00;;;;;;;6.10;2.90;;;18.70;76.40;;;;;;5029147;28;20018;-53
2023/10/05 09:45:29;;;;;;;8.65;3.85;;;18.60;75.00;;;;;;5030078;28;20033;-50
2023/10/05 09:48:03;;;;;;;6.03;3.55;;;18.40;74.00;;;;;;5020330;28;20136;-52
2023/10/05 09:50:30;;;;;;;7.78;3.25;;;18.20;76.20;;;;;;5027078;28;20501;-49
2023/10/05 09:52:59;;;;;;;5.78;3.30;;;18.00;76.00;;;;;;5026144;28;20044;-52
2023/10/05 09:55:25;;;;;;;8.75;2.95;;;17.80;76.70;;;;;;5030678;28;20022;-51
2023/10/05 09:57:51;;;;;;;6.60;2.90;;;17.70;77.20;;;;;;5027122;28;20025;-50
2023/10/05 10:00:29;;;;;;;8.40;3.58;;;17.70;77.60;;;;;;5026450;28;20037;-49
2023/10/05 10:02:59;;;;;;;7.35;3.10;;;17.60;78.30;;;;;;5024348;28;20109;-51
2023/10/05 10:05:35;;;;;;;5.18;2.90;;;17.40;77.80;;;;;;5035836;28;20380;-47
2023/10/05 10:08:12;;;;;;;7.25;3.42;;;17.30;78.70;;;;;;5031748;28;20110;-51
2023/10/05 10:10:43;;;;;;;6.80;2.70;;;17.20;79.20;;;;;;5009543;28;20022;-51
2023/10/05 10:13:14;;;;;;;6.97;3.22;;;17.20;79.30;;;;;;5029909;28;20031;-52
2023/10/05 10:15:40;;;;;;;6.18;3.15;;;17.10;79.10;;;;;;5022625;28;20079;-54
2023/10/05 10:18:07;;;;;;;11.73;3.10;;;17.10;79.90;;;;;;5027349;28;20069;-51
2023/10/05 10:20:36;;;;;;;9.65;3.17;;;17.10;79.90;;;;;;5032077;28;20025;-50
2023/10/05 10:23:14;;;;;;;7.63;2.92;;;17.00;80.40;;;;;;5028895;28;20116;-51
2023/10/05 10:25:40;;;;;;;8.00;2.58;;;17.00;81.30;;;;;;5029189;28;20033;-52
2023/10/05 10:28:24;;;;;;;9.70;3.40;;;17.00;82.60;;;;;;5026262;28;20052;-51
2023/10/05 10:31:17;;;;;;;5.43;2.58;;;16.90;85.20;;;;;;5025991;28;20750;-53
2023/10/05 10:33:43;;;;;;;7.38;3.58;;;16.80;84.60;;;;;;5014311;28;20025;-51
2023/10/05 10:36:18;;;;;;;6.40;2.88;;;16.70;85.70;;;;;;5029060;28;20045;-53
2023/10/05 10:38:45;;;;;;;7.13;3.13;;;16.60;86.20;;;;;;5029916;28;20040;-49
2023/10/05 10:41:11;;;;;;;5.65;2.70;;;16.60;86.70;;;;;;5029353;28;20065;-51
2023/10/05 10:43:37;;;;;;;8.70;3.03;;;16.50;86.60;;;;;;5025462;28;20017;-49
2023/10/05 10:46:19;;;;;;;8.20;2.78;;;16.50;87.00;;;;;;5030668;28;20136;-53
2023/10/05 10:48:59;;;;;;;6.57;2.67;;;16.50;87.60;;;;;;5022313;28;20021;-51
2023/10/05 10:51:27;;;;;;;7.53;2.78;;;16.40;88.70;;;;;;5020420;28;20034;-49
2023/10/05 10:53:56;;;;;;;4.40;2.42;;;16.40;89.60;;;;;;5030105;28;20512;-51
2023/10/05 10:56:30;;;;;;;9.00;3.30;;;16.40;90.30;;;;;;5021522;28;20044;-51
2023/10/05 10:58:57;;;;;;;6.03;3.10;;;16.30;90.80;;;;;;5027124;28;20554;-51
2023/10/05 11:01:29;;;;;;;7.78;3.05;;;16.20;90.70;;;;;;5026504;28;20116;-52
2023/10/05 11:04:04;;;;;;;5.85;2.60;;;16.20;91.10;;;;;;5028989;28;20024;-50
2023/10/05 11:06:30;;;;;;;8.50;3.45;;;16.20;92.30;;;;;;5026712;28;20426;-52
2023/10/05 11:09:09;;;;;;;7.72;2.72;;;16.10;93.40;;;;;;5026360;28;20025;-52
2023/10/05 11:11:37;;;;;;;7.97;3.13;;;16.00;95.60;;;;;;5030195;28;20478;-48
2023/10/05 11:14:06;;;;;;;6.60;3.17;;;16.00;95.70;;;;;;5028089;28;20086;-53
2023/10/05 11:16:35;;;;;;;6.97;3.28;;;15.90;96.70;;;;;;5029935;28;20025;-52
2023/10/05 11:19:04;;;;;;;7.68;3.30;;;15.90;96.80;;;;;;5023346;28;20030;-49
2023/10/05 11:21:43;;;;;;;5.53;2.60;;;15.90;97.10;;;;;;5025688;28;20045;-52
2023/10/05 11:24:10;;;;;;;7.45;2.97;;;15.90;97.30;;;;;;5028577;28;20029;-51
2023/10/05 11:29:28;;;;;;;7.80;3.08;;;15.90;96.70;;;;;;5022755;28;20032;-52
2023/10/05 11:32:01;;;;;;;8.10;2.90;;;15.80;97.00;;;;;;5026963;28;20087;-51
2023/10/05 11:34:29;;;;;;;5.53;3.00;;;15.80;97.60;;;;;;5030158;28;20507;-52
2023/10/05 11:36:58;;;;;;;5.68;3.05;;;15.70;97.80;;;;;;5027415;28;20123;-51
2023/10/05 11:39:27;;;;;;;10.35;3.85;;;15.70;98.20;;;;;;5024153;28;20116;-51
2023/10/05 11:41:57;;;;;;;10.38;4.20;;;15.70;98.90;;;;;;5024457;28;20405;-52
2023/10/05 11:44:24;;;;;;;9.23;5.07;;;15.60;99.90;;;;;;5027536;28;20017;-51
2023/10/05 11:46:53;;;;;;;13.20;6.60;;;15.50;99.90;;;;;;5023265;28;20029;-50
2023/10/05 11:49:20;;;;;;;12.50;4.90;;;15.50;99.90;;;;;;5026464;28;20036;-53
2023/10/05 11:51:56;;;;;;;8.65;3.65;;;15.50;99.90;;;;;;5026179;28;20029;-54
2023/10/05 11:54:32;;;;;;;5.40;3.00;;;15.60;99.90;;;;;;5025821;28;20100;-51
2023/10/05 11:56:59;;;;;;;5.80;2.95;;;15.60;99.90;;;;;;5025187;28;20112;-65
2023/10/05 11:59:28;;;;;;;7.18;3.00;;;15.60;99.90;;;;;;5029362;28;20017;-65
2023/10/05 12:01:55;;;;;;;7.82;3.33;;;15.60;99.90;;;;;;5022290;28;20029;-65
2023/10/05 12:04:20;;;;;;;8.52;3.15;;;15.70;99.90;;;;;;5025094;28;20061;-66
2023/10/05 12:06:58;;;;;;;5.20;2.95;;;15.60;99.90;;;;;;5024513;28;20057;-66
2023/10/05 12:09:27;;;;;;;4.63;2.53;;;15.70;99.90;;;;;;5029682;28;20488;-66
2023/10/05 12:11:58;;;;;;;9.25;3.05;;;15.70;99.90;;;;;;5026373;28;20477;-65
2023/10/05 12:14:24;;;;;;;5.13;2.72;;;15.70;99.90;;;;;;5026987;28;20119;-66
2023/10/05 12:16:56;;;;;;;4.57;2.75;;;15.60;99.90;;;;;;5021865;28;21006;-65
2023/10/05 12:19:27;;;;;;;5.75;2.80;;;15.60;99.90;;;;;;5027228;28;20029;-65
2023/10/05 12:21:55;;;;;;;7.97;3.58;;;15.50;99.90;;;;;;5030463;28;20388;-65
2023/10/05 12:24:21;;;;;;;6.18;3.35;;;15.40;99.90;;;;;;5024291;28;20025;-65
2023/10/05 12:26:47;;;;;;;6.88;3.35;;;15.30;99.90;;;;;;5023535;28;20044;-65
2023/10/05 12:29:13;;;;;;;9.35;3.70;;;15.10;99.90;;;;;;5024962;28;20104;-65
2023/10/05 12:31:44;;;;;;;6.50;3.53;;;15.00;99.90;;;;;;5027139;28;20048;-65
2023/10/05 12:34:14;;;;;;;5.60;2.78;;;15.00;99.90;;;;;;5026299;28;20079;-65
2023/10/05 12:36:41;;;;;;;4.70;2.83;;;14.90;99.90;;;;;;5019351;28;20021;-65
2023/10/05 12:39:11;;;;;;;7.95;3.28;;;15.00;99.90;;;;;;5022354;28;20053;-65
2023/10/05 12:41:40;;;;;;;7.25;2.65;;;15.00;99.90;;;;;;5018805;28;20171;-65
2023/10/05 12:44:09;;;;;;;6.93;2.85;;;15.00;99.90;;;;;;5027181;28;20096;-65
2023/10/05 12:46:41;;;;;;;6.47;3.03;;;15.00;99.90;;;;;;5017043;28;20171;-64
2023/10/05 12:49:10;;;;;;;7.22;2.95;;;15.00;99.90;;;;;;5022806;28;20029;-65
2023/10/05 12:51:39;;;;;;;3.65;2.50;;;15.00;99.90;;;;;;5022137;28;20025;-65
2023/10/05 12:54:28;;;;;;;7.22;2.95;;;15.00;99.90;;;;;;5028123;28;20017;-65
2023/10/05 12:56:54;;;;;;;4.82;2.72;;;15.00;99.90;;;;;;5016784;28;20037;-65
2023/10/05 12:59:21;;;;;;;6.80;2.97;;;15.00;99.90;;;;;;5020270;28;20021;-65
2023/10/05 13:01:47;;;;;;;7.63;2.70;;;15.00;99.90;;;;;;5025446;28;20022;-65
2023/10/05 13:04:14;;;;;;;5.68;2.67;;;15.00;99.90;;;;;;5027235;28;20152;-65
2023/10/05 13:06:41;;;;;;;5.20;2.72;;;15.00;99.90;;;;;;5027004;28;20037;-66
2023/10/05 13:09:13;;;;;;;5.18;2.70;;;15.00;99.90;;;;;;5027590;28;20087;-65